Terminal Aerodrome Forecast
Issued by NWS Charleston, WV

Current Version | Previous Version | Graphics & Text | Print | Product List | Glossary On
Versions: 1 2 3 4 5 6 7 8 9 10 11 12 13 14 15 16 17 18 19 20 21 22 23 24
000
FTUS41 KRLX 222300
TAFCRW
TAF
KCRW 222332Z 2300/2324 30015G25KT P6SM SCT050
     FM230500 30008KT P6SM SCT040
     FM231700 31008KT P6SM FEW140
     FM232300 33004KT P6SM FEW150=

USA.gov is the U.S. government's official web portal to all federal, state and local government web resources and services.